createdAt,value
2022-10-20T00:00:42.268Z,10.73
2022-10-20T00:03:08.070Z,11.05
2022-10-20T00:05:33.876Z,10.88
2022-10-20T00:07:59.723Z,12.07
2022-10-20T00:10:25.444Z,11.00
2022-10-20T00:12:51.214Z,9.98
2022-10-20T00:15:17.243Z,13.52
2022-10-20T00:17:44.190Z,12.05
2022-10-20T00:20:10.375Z,13.48
2022-10-20T00:22:36.460Z,10.32
2022-10-20T00:25:02.629Z,12.13
2022-10-20T00:27:28.404Z,10.35
2022-10-20T00:29:54.151Z,15.00
2022-10-20T00:32:19.944Z,12.38
2022-10-20T00:34:45.708Z,10.02
2022-10-20T00:37:11.494Z,15.98
2022-10-20T00:39:37.312Z,12.93
2022-10-20T00:42:04.477Z,13.70
2022-10-20T00:44:56.285Z,11.65
2022-10-20T00:47:35.383Z,14.23
2022-10-20T00:50:07.529Z,9.85
2022-10-20T00:52:34.691Z,14.68
2022-10-20T00:55:01.313Z,15.30
2022-10-20T00:57:28.923Z,17.85
2022-10-20T00:59:54.738Z,10.27
2022-10-20T01:02:20.465Z,13.20
2022-10-20T01:04:46.973Z,11.05
2022-10-20T01:07:12.782Z,13.18
2022-10-20T01:09:38.593Z,11.98
2022-10-20T01:12:27.673Z,20.98
2022-10-20T01:14:59.155Z,17.25
2022-10-20T01:17:49.673Z,12.48
2022-10-20T01:20:33.500Z,11.73
2022-10-20T01:23:27.311Z,11.55
2022-10-20T01:26:30.574Z,14.63
2022-10-20T01:29:00.188Z,13.45
2022-10-20T01:31:33.716Z,15.35
2022-10-20T01:34:21.770Z,20.15
2022-10-20T01:37:10.567Z,13.30
2022-10-20T01:39:50.368Z,12.80
2022-10-20T01:42:22.326Z,13.38
2022-10-20T01:44:51.039Z,9.82
2022-10-20T01:47:19.163Z,10.02
2022-10-20T01:49:47.933Z,15.63
2022-10-20T01:52:13.812Z,11.23
2022-10-20T01:54:39.608Z,11.60
2022-10-20T01:57:32.894Z,12.13
2022-10-20T02:00:07.906Z,12.82
2022-10-20T02:02:52.383Z,12.10
2022-10-20T02:05:24.344Z,7.88
2022-10-20T02:07:53.257Z,8.38
2022-10-20T02:10:25.188Z,11.48
2022-10-20T02:12:56.164Z,8.40
2022-10-20T02:15:25.620Z,7.97
2022-10-20T02:18:00.032Z,8.10
2022-10-20T02:20:27.973Z,8.60
2022-10-20T02:22:55.448Z,8.43
2022-10-20T02:25:21.704Z,15.27
2022-10-20T02:27:48.145Z,7.28
2022-10-20T02:30:16.761Z,9.30
2022-10-20T02:32:48.571Z,10.77
2022-10-20T02:35:18.828Z,9.52
2022-10-20T02:37:44.674Z,8.10
2022-10-20T02:40:10.902Z,10.90
2022-10-20T02:42:37.989Z,8.20
2022-10-20T02:45:04.160Z,11.77
2022-10-20T02:47:29.997Z,11.25
2022-10-20T02:49:55.828Z,7.55
2022-10-20T02:52:21.606Z,8.20
2022-10-20T02:54:47.393Z,11.30
2022-10-20T02:57:13.179Z,9.57
2022-10-20T02:59:38.977Z,7.53
2022-10-20T03:02:04.803Z,10.45
2022-10-20T03:04:30.653Z,8.57
2022-10-20T03:06:56.469Z,9.73
2022-10-20T03:09:22.298Z,7.60
2022-10-20T03:11:48.090Z,7.38
2022-10-20T03:14:13.972Z,8.07
2022-10-20T03:16:39.818Z,7.00
2022-10-20T03:19:07.264Z,7.28
2022-10-20T03:21:34.974Z,8.30
2022-10-20T03:24:00.819Z,7.78
2022-10-20T03:26:26.630Z,7.53
2022-10-20T03:28:52.417Z,9.55
2022-10-20T03:31:18.190Z,8.95
2022-10-20T03:33:43.967Z,6.05
2022-10-20T03:36:10.061Z,7.25
2022-10-20T03:38:35.875Z,7.70
2022-10-20T03:43:32.884Z,8.50
2022-10-20T03:46:04.817Z,8.80
2022-10-20T03:48:30.563Z,8.90
2022-10-20T03:50:56.605Z,6.43
2022-10-20T03:53:22.692Z,7.70
2022-10-20T03:55:48.439Z,5.88
2022-10-20T03:58:14.212Z,6.70
2022-10-20T04:00:40.007Z,8.40
2022-10-20T04:03:05.809Z,6.80
2022-10-20T04:05:31.648Z,9.50
2022-10-20T04:07:57.473Z,7.53
2022-10-20T04:10:23.270Z,6.30
2022-10-20T04:12:49.079Z,7.45
2022-10-20T04:15:14.953Z,6.15
2022-10-20T04:17:40.729Z,8.30
2022-10-20T04:20:07.072Z,5.63
2022-10-20T04:22:33.140Z,8.85
2022-10-20T04:24:59.084Z,8.02
2022-10-20T04:27:24.840Z,9.45
2022-10-20T04:29:50.609Z,7.10
2022-10-20T04:32:17.616Z,7.28
2022-10-20T04:34:43.383Z,7.25
2022-10-20T04:37:09.206Z,10.27
2022-10-20T04:39:34.994Z,11.27
2022-10-20T04:42:00.863Z,10.60
2022-10-20T04:44:26.733Z,10.00
2022-10-20T04:46:53.879Z,8.85
2022-10-20T04:49:19.677Z,9.48
2022-10-20T04:51:45.512Z,10.45
2022-10-20T04:54:11.585Z,9.38
2022-10-20T04:56:37.433Z,9.43
2022-10-20T04:59:03.571Z,8.57
2022-10-20T05:01:30.819Z,10.40
2022-10-20T05:03:57.264Z,17.40
2022-10-20T05:06:28.528Z,9.40
2022-10-20T05:08:58.126Z,11.50
2022-10-20T05:11:25.796Z,11.38
2022-10-20T05:13:51.897Z,8.75
2022-10-20T05:16:17.797Z,10.52
2022-10-20T05:18:44.730Z,9.80
2022-10-20T05:21:16.636Z,9.05
2022-10-20T05:23:43.680Z,9.77
2022-10-20T05:26:12.902Z,11.05
2022-10-20T05:28:41.843Z,10.57
2022-10-20T05:31:08.423Z,12.90
2022-10-20T05:33:35.663Z,11.73
2022-10-20T05:36:09.506Z,11.75
2022-10-20T05:38:36.194Z,11.57
2022-10-20T05:41:10.211Z,13.60
2022-10-20T05:43:36.084Z,16.17
2022-10-20T05:46:02.399Z,12.35
2022-10-20T05:48:28.319Z,16.45
2022-10-20T05:50:54.244Z,12.40
2022-10-20T05:53:20.128Z,12.80
2022-10-20T05:55:45.953Z,9.73
2022-10-20T05:58:11.870Z,10.77
2022-10-20T06:00:52.029Z,18.95
2022-10-20T06:03:19.714Z,14.27
2022-10-20T06:05:49.039Z,12.35
2022-10-20T06:08:14.842Z,10.75
2022-10-20T06:10:40.609Z,13.70
2022-10-20T06:13:06.439Z,12.82
2022-10-20T06:15:32.202Z,10.02
2022-10-20T06:17:58.010Z,12.35
2022-10-20T06:20:23.789Z,10.25
2022-10-20T06:22:49.597Z,13.30
2022-10-20T06:25:15.403Z,12.88
2022-10-20T06:27:42.180Z,11.27
2022-10-20T06:30:08.462Z,12.15
2022-10-20T06:32:34.595Z,13.60
2022-10-20T06:35:00.604Z,10.60
2022-10-20T06:37:26.488Z,10.02
2022-10-20T06:39:52.261Z,12.80
2022-10-20T06:42:18.999Z,16.05
2022-10-20T06:44:44.773Z,11.43
2022-10-20T06:47:10.631Z,9.88
2022-10-20T06:49:36.437Z,12.95
2022-10-20T06:52:02.416Z,10.50
2022-10-20T06:54:28.309Z,11.18
2022-10-20T06:56:54.139Z,12.25
2022-10-20T06:59:19.998Z,12.18
2022-10-20T07:01:45.934Z,13.10
2022-10-20T07:04:15.473Z,9.15
2022-10-20T07:06:45.467Z,8.63
2022-10-20T07:09:17.803Z,10.50
2022-10-20T07:11:45.028Z,11.95
2022-10-20T07:14:12.995Z,11.20
2022-10-20T07:16:39.015Z,9.55
2022-10-20T07:19:05.329Z,11.35
2022-10-20T07:21:35.752Z,9.60
2022-10-20T07:24:04.805Z,12.82
2022-10-20T07:26:33.441Z,13.55
2022-10-20T07:29:01.146Z,10.88
2022-10-20T07:31:30.848Z,11.25
2022-10-20T07:34:13.743Z,14.35
2022-10-20T07:36:46.202Z,13.77
2022-10-20T07:39:12.922Z,12.57
2022-10-20T07:41:39.446Z,12.10
2022-10-20T07:44:06.336Z,13.27
2022-10-20T07:46:32.228Z,12.23
2022-10-20T07:49:11.456Z,10.90
2022-10-20T07:56:40.797Z,11.32
2022-10-20T07:59:07.988Z,10.77
2022-10-20T08:01:34.975Z,13.25
2022-10-20T08:04:01.327Z,12.75
2022-10-20T08:06:27.943Z,13.93
2022-10-20T08:08:54.212Z,12.65
2022-10-20T08:11:20.642Z,10.88
2022-10-20T08:13:49.342Z,10.05
2022-10-20T08:16:19.224Z,12.73
2022-10-20T08:21:26.065Z,13.57
2022-10-20T08:23:52.065Z,11.30
2022-10-20T08:26:23.459Z,10.60
2022-10-20T08:28:51.342Z,12.77
2022-10-20T08:31:17.740Z,12.75
2022-10-20T08:33:43.782Z,11.10
2022-10-20T08:36:12.467Z,11.45
2022-10-20T08:38:39.986Z,14.15
2022-10-20T08:41:15.602Z,10.88
2022-10-20T08:43:42.174Z,15.73
2022-10-20T08:46:15.149Z,13.85
2022-10-20T08:48:42.272Z,10.82
2022-10-20T08:51:32.658Z,10.00
2022-10-20T08:54:01.095Z,10.98
2022-10-20T08:56:32.490Z,10.45
2022-10-20T08:58:58.509Z,10.05
2022-10-20T09:01:28.650Z,16.98
2022-10-20T09:03:57.887Z,10.00
2022-10-20T09:06:24.310Z,15.95
2022-10-20T09:08:51.043Z,10.73
2022-10-20T09:11:22.691Z,10.32
2022-10-20T09:16:40.998Z,10.45
2022-10-20T09:19:20.463Z,11.18
2022-10-20T09:21:54.255Z,13.00
2022-10-20T09:24:22.324Z,10.40
2022-10-20T09:26:58.563Z,12.40
2022-10-20T09:29:37.173Z,15.40
2022-10-20T09:32:15.460Z,11.20
2022-10-20T09:34:44.070Z,11.95
2022-10-20T09:37:12.647Z,8.45
2022-10-20T09:39:51.376Z,12.93
2022-10-20T09:42:33.493Z,9.60
2022-10-20T09:45:27.842Z,14.60
2022-10-20T09:48:00.939Z,10.88
2022-10-20T09:50:31.545Z,9.02
2022-10-20T09:53:00.454Z,11.18
2022-10-20T09:55:34.745Z,9.73
2022-10-20T09:58:02.958Z,9.55
2022-10-20T10:00:42.119Z,10.30
2022-10-20T10:03:20.345Z,13.15
2022-10-20T10:05:59.641Z,11.20
2022-10-20T10:08:29.841Z,10.95
2022-10-20T10:11:15.227Z,10.05
2022-10-20T10:13:44.779Z,11.18
2022-10-20T10:16:14.718Z,12.35
2022-10-20T10:18:48.278Z,11.02
2022-10-20T10:21:16.728Z,9.80
2022-10-20T10:23:58.540Z,12.52
2022-10-20T10:26:36.494Z,12.40
2022-10-20T10:29:03.181Z,11.10
2022-10-20T10:31:29.055Z,11.32
2022-10-20T10:34:13.200Z,11.95
2022-10-20T10:36:39.127Z,11.52
2022-10-20T10:39:10.606Z,12.35
2022-10-20T10:44:27.371Z,16.90
2022-10-20T10:47:24.838Z,13.70
2022-10-20T10:50:09.379Z,12.73
2022-10-20T10:52:54.394Z,11.87
2022-10-20T10:55:49.796Z,18.45
2022-10-20T10:58:45.826Z,13.07
2022-10-20T11:01:17.792Z,11.82
2022-10-20T11:04:09.568Z,11.60
2022-10-20T11:06:38.175Z,13.27
2022-10-20T11:09:27.913Z,11.05
2022-10-20T11:12:08.955Z,14.38
2022-10-20T11:14:46.501Z,9.18
2022-10-20T11:17:21.308Z,12.95
2022-10-20T11:20:02.545Z,10.52
2022-10-20T11:22:51.356Z,14.88
2022-10-20T11:25:32.192Z,9.00
2022-10-20T11:27:59.401Z,12.00
2022-10-20T11:30:26.835Z,10.68
2022-10-20T11:33:12.353Z,10.77
2022-10-20T11:35:56.195Z,9.80
2022-10-20T11:38:35.490Z,7.82
2022-10-20T11:41:12.204Z,7.60
2022-10-20T11:43:48.701Z,9.63
2022-10-20T11:46:29.821Z,9.65
2022-10-20T11:48:58.224Z,13.20
2022-10-20T11:51:27.351Z,8.07
2022-10-20T11:54:29.870Z,13.18
2022-10-20T11:57:23.081Z,11.57
2022-10-20T12:00:26.134Z,12.32
2022-10-20T12:03:13.281Z,10.63
2022-10-20T12:06:07.670Z,12.52
2022-10-20T12:09:03.412Z,13.00
2022-10-20T12:12:02.224Z,18.30
2022-10-20T12:14:35.540Z,17.67
2022-10-20T12:17:26.014Z,16.27
2022-10-20T12:20:12.185Z,17.00
2022-10-20T12:22:40.339Z,17.77
2022-10-20T12:25:06.152Z,17.00
2022-10-20T12:27:32.198Z,16.05
2022-10-20T12:30:22.378Z,12.85
2022-10-20T12:33:18.617Z,14.35
2022-10-20T12:36:18.162Z,13.82
2022-10-20T12:38:50.340Z,16.27
2022-10-20T12:41:32.144Z,14.45
2022-10-20T12:44:01.337Z,16.02
2022-10-20T12:46:30.977Z,12.45
2022-10-20T12:49:01.883Z,19.85
2022-10-20T12:51:35.521Z,18.08
2022-10-20T12:54:25.385Z,19.42
2022-10-20T12:56:57.044Z,13.43
2022-10-20T12:59:43.439Z,16.52
2022-10-20T13:02:09.433Z,16.40
2022-10-20T13:04:57.532Z,18.05
2022-10-20T13:07:48.115Z,17.50
2022-10-20T13:10:26.232Z,19.90
2022-10-20T13:12:53.635Z,17.08
2022-10-20T13:15:21.613Z,15.35
2022-10-20T13:17:58.032Z,16.42
2022-10-20T13:20:35.602Z,20.55
2022-10-20T13:23:02.297Z,14.23
2022-10-20T13:25:35.330Z,17.30
2022-10-20T13:28:11.852Z,21.65
2022-10-20T13:31:06.564Z,17.10
2022-10-20T13:33:58.814Z,20.80
2022-10-20T13:36:34.921Z,21.55
2022-10-20T13:39:21.969Z,19.05
2022-10-20T13:41:55.350Z,22.08
2022-10-20T13:44:58.627Z,23.35
2022-10-20T13:48:06.309Z,22.05
2022-10-20T13:50:39.796Z,16.80
2022-10-20T13:53:21.372Z,18.10
2022-10-20T13:56:17.957Z,19.08
2022-10-20T13:59:06.115Z,16.90
2022-10-20T14:01:36.181Z,16.98
2022-10-20T14:04:02.122Z,20.45
2022-10-20T14:06:33.192Z,17.42
2022-10-20T14:09:14.125Z,16.55
2022-10-20T14:11:40.648Z,18.48
2022-10-20T14:14:06.472Z,17.30
2022-10-20T14:16:32.994Z,18.35
2022-10-20T14:19:10.269Z,19.20
2022-10-20T14:21:45.494Z,24.60
2022-10-20T14:24:33.740Z,21.48
2022-10-20T14:27:02.545Z,26.75
2022-10-20T14:29:34.441Z,18.92
2022-10-20T14:32:00.491Z,17.52
2022-10-20T14:34:33.330Z,20.65
2022-10-20T14:36:59.804Z,21.25
2022-10-20T14:39:52.035Z,20.42
2022-10-20T14:42:24.488Z,18.60
2022-10-20T14:44:52.286Z,23.58
2022-10-20T14:47:20.364Z,19.83
2022-10-20T14:49:52.657Z,24.55
2022-10-20T14:52:21.234Z,19.27
2022-10-20T14:54:50.054Z,23.92
2022-10-20T14:57:15.814Z,16.90
2022-10-20T15:00:20.812Z,24.83
2022-10-20T15:02:55.436Z,23.73
2022-10-20T15:05:31.968Z,24.90
2022-10-20T15:08:07.083Z,24.35
2022-10-20T15:10:33.164Z,25.58
2022-10-20T15:12:59.254Z,26.85
2022-10-20T15:15:28.382Z,26.10
2022-10-20T15:18:22.594Z,28.45
2022-10-20T15:20:49.860Z,28.40
2022-10-20T15:23:26.902Z,28.15
2022-10-20T15:26:12.731Z,27.98
2022-10-20T15:28:39.705Z,24.23
2022-10-20T15:31:20.059Z,25.52
2022-10-20T15:33:46.346Z,26.67
2022-10-20T15:36:32.581Z,24.17
2022-10-20T15:38:59.392Z,28.02
2022-10-20T15:41:27.978Z,29.83
2022-10-20T15:43:54.062Z,27.85
2022-10-20T15:46:20.135Z,29.92
2022-10-20T15:48:46.019Z,25.35
2022-10-20T15:51:19.331Z,25.00
2022-10-20T15:53:47.736Z,22.02
2022-10-20T15:56:13.511Z,21.92
2022-10-20T15:58:39.964Z,23.20
2022-10-20T16:01:07.776Z,23.92
2022-10-20T16:03:35.074Z,22.10
2022-10-20T16:06:01.073Z,21.35
2022-10-20T16:08:28.064Z,26.38
2022-10-20T16:10:55.488Z,18.30
2022-10-20T16:13:21.593Z,19.63
2022-10-20T16:15:47.537Z,20.98
2022-10-20T16:18:13.510Z,18.00
2022-10-20T16:20:39.736Z,20.80
2022-10-20T16:23:05.726Z,18.50
2022-10-20T16:25:31.755Z,25.50
2022-10-20T16:27:58.010Z,20.75
2022-10-20T16:30:23.924Z,15.45
2022-10-20T16:32:49.786Z,19.58
2022-10-20T16:35:15.744Z,19.20
2022-10-20T16:37:42.796Z,18.83
2022-10-20T16:40:09.486Z,15.48
2022-10-20T16:42:35.330Z,18.92
2022-10-20T16:45:01.459Z,17.45
2022-10-20T16:47:27.533Z,24.58
2022-10-20T16:49:53.688Z,18.30
2022-10-20T16:52:20.297Z,19.23
2022-10-20T16:54:46.393Z,15.02
2022-10-20T16:57:13.295Z,19.00
2022-10-20T16:59:40.726Z,22.38
2022-10-20T17:02:06.978Z,16.35
2022-10-20T17:04:33.193Z,15.48
2022-10-20T17:06:59.221Z,15.60
2022-10-20T17:09:25.440Z,14.02
2022-10-20T17:11:51.660Z,16.08
2022-10-20T17:14:17.801Z,19.42
2022-10-20T17:16:43.723Z,15.75
2022-10-20T17:19:09.813Z,20.60
2022-10-20T17:21:35.866Z,16.17
2022-10-20T17:24:01.889Z,16.73
2022-10-20T17:26:32.026Z,18.55
2022-10-20T17:29:00.109Z,17.58
2022-10-20T17:31:27.085Z,15.95
2022-10-20T17:33:54.094Z,15.43
2022-10-20T17:36:25.190Z,17.00
2022-10-20T17:39:04.924Z,20.80
2022-10-20T17:41:32.403Z,20.95
2022-10-20T17:44:03.796Z,20.23
2022-10-20T17:46:30.095Z,17.48
2022-10-20T17:48:55.998Z,20.42
2022-10-20T17:51:26.802Z,18.75
2022-10-20T17:53:57.205Z,21.33
2022-10-20T17:56:28.606Z,17.75
2022-10-20T17:58:55.600Z,22.48
2022-10-20T18:01:27.403Z,18.90
2022-10-20T18:03:59.894Z,22.50
2022-10-20T18:06:32.725Z,21.88
2022-10-20T18:09:03.518Z,18.95
2022-10-20T18:11:32.548Z,21.70
2022-10-20T18:13:59.401Z,21.02
2022-10-20T18:16:27.771Z,15.63
2022-10-20T18:21:30.395Z,16.85
2022-10-20T18:23:58.540Z,19.75
2022-10-20T18:26:25.040Z,16.75
2022-10-20T18:28:51.844Z,17.83
2022-10-20T18:31:21.831Z,21.08
2022-10-20T18:33:48.961Z,21.13
2022-10-20T18:36:18.598Z,21.13
2022-10-20T18:38:45.546Z,19.52
2022-10-20T18:41:17.051Z,19.65
2022-10-20T18:43:44.712Z,19.92
2022-10-20T18:46:11.392Z,17.05
2022-10-20T18:48:38.859Z,21.48
2022-10-20T18:51:06.822Z,19.10
2022-10-20T18:53:33.849Z,17.98
2022-10-20T18:56:07.456Z,16.90
2022-10-20T18:58:37.617Z,19.92
2022-10-20T19:01:11.797Z,27.63
2022-10-20T19:03:38.652Z,22.40
2022-10-20T19:06:09.626Z,16.92
2022-10-20T19:08:37.062Z,16.85
2022-10-20T19:11:05.210Z,17.13
2022-10-20T19:13:31.131Z,12.85
2022-10-20T19:15:58.735Z,12.50
2022-10-20T19:18:26.789Z,16.17
2022-10-20T19:21:01.175Z,11.18
2022-10-20T19:23:29.744Z,14.18
2022-10-20T19:26:11.342Z,13.07
2022-10-20T19:28:40.220Z,13.30
2022-10-20T19:31:21.021Z,15.10
2022-10-20T19:33:49.693Z,12.75
2022-10-20T19:36:15.638Z,13.05
2022-10-20T19:38:41.673Z,11.85
2022-10-20T19:41:07.533Z,10.20
2022-10-20T19:43:37.576Z,12.75
2022-10-20T19:46:07.646Z,10.32
2022-10-20T19:48:34.964Z,9.02
2022-10-20T19:51:01.249Z,11.35
2022-10-20T19:53:27.170Z,9.73
2022-10-20T19:55:53.617Z,10.43
2022-10-20T19:58:20.669Z,9.93
2022-10-20T20:00:50.723Z,8.88
2022-10-20T20:03:17.886Z,10.43
2022-10-20T20:05:47.738Z,16.20
2022-10-20T20:08:14.526Z,12.95
2022-10-20T20:10:40.757Z,13.00
2022-10-20T20:13:06.715Z,11.35
2022-10-20T20:15:32.541Z,13.77
2022-10-20T20:17:58.473Z,14.13
2022-10-20T20:20:24.319Z,12.35
2022-10-20T20:22:50.126Z,12.65
2022-10-20T20:25:16.135Z,13.43
2022-10-20T20:27:42.237Z,14.38
2022-10-20T20:30:08.463Z,14.07
2022-10-20T20:32:37.000Z,19.95
2022-10-20T20:37:34.119Z,20.42
2022-10-20T20:39:59.948Z,17.98
2022-10-20T20:42:25.799Z,18.40
2022-10-20T20:44:52.309Z,20.38
2022-10-20T20:47:18.112Z,17.83
2022-10-20T20:49:43.948Z,17.17
2022-10-20T20:52:09.794Z,19.02
2022-10-20T20:54:35.622Z,15.95
2022-10-20T20:57:01.378Z,16.25
2022-10-20T20:59:27.205Z,18.65
2022-10-20T21:01:53.026Z,16.88
2022-10-20T21:04:20.581Z,21.05
2022-10-20T21:07:02.912Z,22.33
2022-10-20T21:09:29.230Z,16.88
2022-10-20T21:11:55.164Z,21.58
2022-10-20T21:14:20.914Z,20.48
2022-10-20T21:16:46.883Z,21.40
2022-10-20T21:19:12.750Z,18.05
2022-10-20T21:21:46.394Z,18.58
2022-10-20T21:24:12.585Z,19.00
2022-10-20T21:26:38.956Z,21.48
2022-10-20T21:29:05.179Z,24.30
2022-10-20T21:31:31.165Z,21.30
2022-10-20T21:34:03.095Z,22.88
2022-10-20T21:36:31.691Z,18.50
2022-10-20T21:38:58.995Z,25.00
2022-10-20T21:41:27.124Z,18.98
2022-10-20T21:43:55.249Z,21.75
2022-10-20T21:46:20.973Z,19.75
2022-10-20T21:48:49.124Z,17.90
2022-10-20T21:51:25.980Z,26.60
2022-10-20T21:54:00.144Z,17.15
2022-10-20T21:56:26.486Z,16.15
2022-10-20T21:58:53.312Z,19.25
2022-10-20T22:01:22.440Z,17.35
2022-10-20T22:03:49.563Z,15.18
2022-10-20T22:06:17.860Z,17.75
2022-10-20T22:08:46.250Z,22.48
2022-10-20T22:11:17.786Z,22.00
2022-10-20T22:13:44.005Z,20.98
2022-10-20T22:16:15.436Z,17.45
2022-10-20T22:18:41.582Z,22.58
2022-10-20T22:21:13.471Z,21.98
2022-10-20T22:23:39.846Z,20.98
2022-10-20T22:26:05.749Z,18.60
2022-10-20T22:28:32.143Z,20.30
2022-10-20T22:30:58.110Z,27.02
2022-10-20T22:33:24.235Z,22.42
2022-10-20T22:35:50.038Z,20.33
2022-10-20T22:38:15.952Z,22.35
2022-10-20T22:40:41.789Z,20.88
2022-10-20T22:43:07.548Z,22.17
2022-10-20T22:45:33.389Z,19.10
2022-10-20T22:47:59.211Z,23.38
2022-10-20T22:50:25.463Z,26.00
2022-10-20T22:52:51.269Z,20.48
2022-10-20T22:55:17.843Z,24.25
2022-10-20T22:57:47.831Z,23.75
2022-10-20T23:00:14.443Z,21.25
2022-10-20T23:02:40.527Z,25.42
2022-10-20T23:05:07.031Z,22.70
2022-10-20T23:07:36.214Z,23.13
2022-10-20T23:10:03.969Z,24.80
2022-10-20T23:12:30.389Z,21.67
2022-10-20T23:14:56.249Z,21.17
2022-10-20T23:17:22.161Z,19.60
2022-10-20T23:19:47.954Z,21.02
2022-10-20T23:22:14.285Z,22.85
2022-10-20T23:24:40.136Z,25.52
2022-10-20T23:27:06.074Z,25.90
2022-10-20T23:29:31.855Z,25.00
2022-10-20T23:31:57.728Z,25.83
2022-10-20T23:34:23.783Z,25.48
2022-10-20T23:36:50.006Z,28.40
2022-10-20T23:39:15.926Z,30.45
2022-10-20T23:41:42.738Z,27.58
2022-10-20T23:44:08.887Z,30.38
2022-10-20T23:46:34.958Z,27.98
2022-10-20T23:49:02.063Z,30.48
2022-10-20T23:51:28.075Z,35.10
2022-10-20T23:53:53.907Z,30.30
2022-10-20T23:56:19.719Z,35.88
2022-10-20T23:58:45.709Z,35.45
